sensor_id;sensor_type;location;lat;lon;timestamp;temperature;humidity
4386;DHT22;2207;53.540;10.042;2023-11-21T00:01:55;9.00;95.50
4386;DHT22;2207;53.540;10.042;2023-11-21T00:04:22;9.00;95.60
4386;DHT22;2207;53.540;10.042;2023-11-21T00:06:49;8.90;95.60
4386;DHT22;2207;53.540;10.042;2023-11-21T00:09:17;8.90;95.40
4386;DHT22;2207;53.540;10.042;2023-11-21T00:11:45;8.80;95.40
4386;DHT22;2207;53.540;10.042;2023-11-21T00:14:11;8.80;95.40
4386;DHT22;2207;53.540;10.042;2023-11-21T00:16:40;8.70;95.30
4386;DHT22;2207;53.540;10.042;2023-11-21T00:19:06;8.70;95.40
4386;DHT22;2207;53.540;10.042;2023-11-21T00:21:33;8.60;95.10
4386;DHT22;2207;53.540;10.042;2023-11-21T00:24:00;8.60;95.10
4386;DHT22;2207;53.540;10.042;2023-11-21T00:26:28;8.60;95.20
4386;DHT22;2207;53.540;10.042;2023-11-21T00:28:56;8.60;95.30
4386;DHT22;2207;53.540;10.042;2023-11-21T00:31:23;8.50;95.40
4386;DHT22;2207;53.540;10.042;2023-11-21T00:33:49;8.50;95.30
4386;DHT22;2207;53.540;10.042;2023-11-21T00:36:16;8.50;95.00
4386;DHT22;2207;53.540;10.042;2023-11-21T00:38:43;8.40;95.00
4386;DHT22;2207;53.540;10.042;2023-11-21T00:41:09;8.30;95.00
4386;DHT22;2207;53.540;10.042;2023-11-21T00:43:37;8.20;94.90
4386;DHT22;2207;53.540;10.042;2023-11-21T00:46:04;8.20;94.90
4386;DHT22;2207;53.540;10.042;2023-11-21T00:48:32;8.10;94.90
4386;DHT22;2207;53.540;10.042;2023-11-21T00:50:59;8.10;94.90
4386;DHT22;2207;53.540;10.042;2023-11-21T00:53:26;8.10;94.90
4386;DHT22;2207;53.540;10.042;2023-11-21T00:55:52;8.00;94.80
4386;DHT22;2207;53.540;10.042;2023-11-21T00:58:22;8.00;94.80
4386;DHT22;2207;53.540;10.042;2023-11-21T01:00:50;8.00;94.80
4386;DHT22;2207;53.540;10.042;2023-11-21T01:03:17;8.00;94.70
4386;DHT22;2207;53.540;10.042;2023-11-21T01:05:43;7.90;94.60
4386;DHT22;2207;53.540;10.042;2023-11-21T01:08:10;7.90;94.50
4386;DHT22;2207;53.540;10.042;2023-11-21T01:10:37;7.80;94.40
4386;DHT22;2207;53.540;10.042;2023-11-21T01:13:03;7.80;94.30
4386;DHT22;2207;53.540;10.042;2023-11-21T01:15:31;7.70;94.30
4386;DHT22;2207;53.540;10.042;2023-11-21T01:17:58;7.70;94.30
4386;DHT22;2207;53.540;10.042;2023-11-21T01:20:25;7.70;94.30
4386;DHT22;2207;53.540;10.042;2023-11-21T01:22:52;7.60;94.20
4386;DHT22;2207;53.540;10.042;2023-11-21T01:25:19;7.60;94.20
4386;DHT22;2207;53.540;10.042;2023-11-21T01:27:46;7.60;94.20
4386;DHT22;2207;53.540;10.042;2023-11-21T01:30:13;7.60;94.20
4386;DHT22;2207;53.540;10.042;2023-11-21T01:32:39;7.50;94.20
4386;DHT22;2207;53.540;10.042;2023-11-21T01:35:08;7.50;94.10
4386;DHT22;2207;53.540;10.042;2023-11-21T01:37:35;7.50;94.10
4386;DHT22;2207;53.540;10.042;2023-11-21T01:40:02;7.50;94.10
4386;DHT22;2207;53.540;10.042;2023-11-21T01:42:30;7.50;94.10
4386;DHT22;2207;53.540;10.042;2023-11-21T01:44:57;7.50;94.10
4386;DHT22;2207;53.540;10.042;2023-11-21T01:47:23;7.50;94.00
4386;DHT22;2207;53.540;10.042;2023-11-21T01:49:50;7.40;93.90
4386;DHT22;2207;53.540;10.042;2023-11-21T01:52:20;7.40;93.90
4386;DHT22;2207;53.540;10.042;2023-11-21T01:54:46;7.40;93.80
4386;DHT22;2207;53.540;10.042;2023-11-21T01:57:13;7.40;93.80
4386;DHT22;2207;53.540;10.042;2023-11-21T01:59:41;7.40;93.70
4386;DHT22;2207;53.540;10.042;2023-11-21T02:02:09;7.30;93.60
4386;DHT22;2207;53.540;10.042;2023-11-21T02:04:36;7.30;93.50
4386;DHT22;2207;53.540;10.042;2023-11-21T02:07:03;7.30;93.40
4386;DHT22;2207;53.540;10.042;2023-11-21T02:09:32;7.30;93.30
4386;DHT22;2207;53.540;10.042;2023-11-21T02:11:59;7.30;93.60
4386;DHT22;2207;53.540;10.042;2023-11-21T02:14:26;7.30;93.30
4386;DHT22;2207;53.540;10.042;2023-11-21T02:16:53;7.30;93.20
4386;DHT22;2207;53.540;10.042;2023-11-21T02:19:22;7.20;93.00
4386;DHT22;2207;53.540;10.042;2023-11-21T02:21:49;7.20;92.90
4386;DHT22;2207;53.540;10.042;2023-11-21T02:24:19;7.20;92.80
4386;DHT22;2207;53.540;10.042;2023-11-21T02:26:46;7.20;92.80
4386;DHT22;2207;53.540;10.042;2023-11-21T02:29:13;7.20;92.70
4386;DHT22;2207;53.540;10.042;2023-11-21T02:31:43;7.20;92.60
4386;DHT22;2207;53.540;10.042;2023-11-21T02:34:13;7.10;92.50
4386;DHT22;2207;53.540;10.042;2023-11-21T02:36:40;7.10;92.50
4386;DHT22;2207;53.540;10.042;2023-11-21T02:39:07;7.10;92.40
4386;DHT22;2207;53.540;10.042;2023-11-21T02:41:36;7.10;92.40
4386;DHT22;2207;53.540;10.042;2023-11-21T02:44:02;7.10;92.30
4386;DHT22;2207;53.540;10.042;2023-11-21T02:46:29;7.10;92.20
4386;DHT22;2207;53.540;10.042;2023-11-21T02:48:57;7.10;92.10
4386;DHT22;2207;53.540;10.042;2023-11-21T02:51:25;7.10;92.10
4386;DHT22;2207;53.540;10.042;2023-11-21T02:53:52;7.10;92.00
4386;DHT22;2207;53.540;10.042;2023-11-21T02:56:18;7.10;91.90
4386;DHT22;2207;53.540;10.042;2023-11-21T02:58:46;7.10;91.90
4386;DHT22;2207;53.540;10.042;2023-11-21T03:01:13;7.10;91.90
4386;DHT22;2207;53.540;10.042;2023-11-21T03:03:40;7.10;91.80
4386;DHT22;2207;53.540;10.042;2023-11-21T03:06:07;7.10;91.70
4386;DHT22;2207;53.540;10.042;2023-11-21T03:08:33;7.10;91.70
4386;DHT22;2207;53.540;10.042;2023-11-21T03:11:03;7.10;91.70
4386;DHT22;2207;53.540;10.042;2023-11-21T03:13:30;7.00;91.60
4386;DHT22;2207;53.540;10.042;2023-11-21T03:15:58;7.00;91.50
4386;DHT22;2207;53.540;10.042;2023-11-21T03:18:25;7.00;91.50
4386;DHT22;2207;53.540;10.042;2023-11-21T03:20:52;7.00;91.50
4386;DHT22;2207;53.540;10.042;2023-11-21T03:23:18;6.90;91.40
4386;DHT22;2207;53.540;10.042;2023-11-21T03:25:45;6.90;91.40
4386;DHT22;2207;53.540;10.042;2023-11-21T03:28:12;6.90;91.40
4386;DHT22;2207;53.540;10.042;2023-11-21T03:30:38;6.90;91.30
4386;DHT22;2207;53.540;10.042;2023-11-21T03:33:06;6.90;91.40
4386;DHT22;2207;53.540;10.042;2023-11-21T03:35:33;6.80;91.30
4386;DHT22;2207;53.540;10.042;2023-11-21T03:37:59;6.80;91.40
4386;DHT22;2207;53.540;10.042;2023-11-21T03:40:26;6.80;91.50
4386;DHT22;2207;53.540;10.042;2023-11-21T03:42:52;6.80;91.50
4386;DHT22;2207;53.540;10.042;2023-11-21T03:45:19;6.80;91.40
4386;DHT22;2207;53.540;10.042;2023-11-21T03:47:46;6.80;91.40
4386;DHT22;2207;53.540;10.042;2023-11-21T03:50:14;6.80;91.40
4386;DHT22;2207;53.540;10.042;2023-11-21T03:52:40;6.80;91.50
4386;DHT22;2207;53.540;10.042;2023-11-21T03:55:08;6.70;91.50
4386;DHT22;2207;53.540;10.042;2023-11-21T03:57:35;6.70;91.50
4386;DHT22;2207;53.540;10.042;2023-11-21T04:00:02;6.70;91.50
4386;DHT22;2207;53.540;10.042;2023-11-21T04:02:29;6.70;91.90
4386;DHT22;2207;53.540;10.042;2023-11-21T04:04:57;6.80;91.60
4386;DHT22;2207;53.540;10.042;2023-11-21T04:07:24;6.80;91.60
4386;DHT22;2207;53.540;10.042;2023-11-21T04:09:52;6.80;91.60
4386;DHT22;2207;53.540;10.042;2023-11-21T04:12:19;6.80;91.50
4386;DHT22;2207;53.540;10.042;2023-11-21T04:14:45;6.80;91.50
4386;DHT22;2207;53.540;10.042;2023-11-21T04:17:12;6.80;91.50
4386;DHT22;2207;53.540;10.042;2023-11-21T04:19:38;6.80;91.50
4386;DHT22;2207;53.540;10.042;2023-11-21T04:22:05;6.80;91.40
4386;DHT22;2207;53.540;10.042;2023-11-21T04:24:33;6.80;91.40
4386;DHT22;2207;53.540;10.042;2023-11-21T04:26:59;6.80;91.40
4386;DHT22;2207;53.540;10.042;2023-11-21T04:29:26;6.80;91.40
4386;DHT22;2207;53.540;10.042;2023-11-21T04:31:53;6.80;91.40
4386;DHT22;2207;53.540;10.042;2023-11-21T04:34:19;6.80;91.40
4386;DHT22;2207;53.540;10.042;2023-11-21T04:36:46;6.80;91.40
4386;DHT22;2207;53.540;10.042;2023-11-21T04:39:12;6.80;91.40
4386;DHT22;2207;53.540;10.042;2023-11-21T04:41:40;6.80;91.30
4386;DHT22;2207;53.540;10.042;2023-11-21T04:44:08;6.80;91.40
4386;DHT22;2207;53.540;10.042;2023-11-21T04:46:34;6.90;91.30
4386;DHT22;2207;53.540;10.042;2023-11-21T04:49:01;6.80;91.20
4386;DHT22;2207;53.540;10.042;2023-11-21T04:51:28;6.80;91.30
4386;DHT22;2207;53.540;10.042;2023-11-21T04:53:54;6.80;91.30
4386;DHT22;2207;53.540;10.042;2023-11-21T04:56:21;6.90;91.50
4386;DHT22;2207;53.540;10.042;2023-11-21T04:58:49;6.90;91.40
4386;DHT22;2207;53.540;10.042;2023-11-21T05:01:16;6.90;91.30
4386;DHT22;2207;53.540;10.042;2023-11-21T05:03:43;6.90;91.40
4386;DHT22;2207;53.540;10.042;2023-11-21T05:06:09;6.90;91.40
4386;DHT22;2207;53.540;10.042;2023-11-21T05:08:36;6.90;91.40
4386;DHT22;2207;53.540;10.042;2023-11-21T05:11:03;6.90;91.30
4386;DHT22;2207;53.540;10.042;2023-11-21T05:13:30;6.80;91.30
4386;DHT22;2207;53.540;10.042;2023-11-21T05:15:59;6.80;91.40
4386;DHT22;2207;53.540;10.042;2023-11-21T05:18:29;6.80;91.30
4386;DHT22;2207;53.540;10.042;2023-11-21T05:20:56;6.80;91.40
4386;DHT22;2207;53.540;10.042;2023-11-21T05:23:23;6.80;91.30
4386;DHT22;2207;53.540;10.042;2023-11-21T05:25:50;6.80;91.30
4386;DHT22;2207;53.540;10.042;2023-11-21T05:28:17;6.80;91.30
4386;DHT22;2207;53.540;10.042;2023-11-21T05:30:46;6.80;91.30
4386;DHT22;2207;53.540;10.042;2023-11-21T05:33:15;6.80;91.20
4386;DHT22;2207;53.540;10.042;2023-11-21T05:35:42;6.80;91.20
4386;DHT22;2207;53.540;10.042;2023-11-21T05:38:09;6.80;91.10
4386;DHT22;2207;53.540;10.042;2023-11-21T05:40:36;6.80;91.00
4386;DHT22;2207;53.540;10.042;2023-11-21T05:43:03;6.80;91.00
4386;DHT22;2207;53.540;10.042;2023-11-21T05:45:30;6.80;91.00
4386;DHT22;2207;53.540;10.042;2023-11-21T05:47:58;6.80;91.00
4386;DHT22;2207;53.540;10.042;2023-11-21T05:50:26;6.70;90.90
4386;DHT22;2207;53.540;10.042;2023-11-21T05:52:53;6.70;91.00
4386;DHT22;2207;53.540;10.042;2023-11-21T05:55:22;6.70;91.00
4386;DHT22;2207;53.540;10.042;2023-11-21T05:57:50;6.70;91.00
4386;DHT22;2207;53.540;10.042;2023-11-21T06:00:17;6.70;90.90
4386;DHT22;2207;53.540;10.042;2023-11-21T06:02:45;6.70;90.90
4386;DHT22;2207;53.540;10.042;2023-11-21T06:05:12;6.70;91.00
4386;DHT22;2207;53.540;10.042;2023-11-21T06:07:40;6.70;90.90
4386;DHT22;2207;53.540;10.042;2023-11-21T06:10:07;6.70;90.90
4386;DHT22;2207;53.540;10.042;2023-11-21T06:12:36;6.70;90.90
4386;DHT22;2207;53.540;10.042;2023-11-21T06:15:03;6.70;90.90
4386;DHT22;2207;53.540;10.042;2023-11-21T06:17:30;6.70;90.90
4386;DHT22;2207;53.540;10.042;2023-11-21T06:19:57;6.80;91.00
4386;DHT22;2207;53.540;10.042;2023-11-21T06:22:24;6.80;90.90
4386;DHT22;2207;53.540;10.042;2023-11-21T06:24:52;6.80;90.80
4386;DHT22;2207;53.540;10.042;2023-11-21T06:27:18;6.80;90.80
4386;DHT22;2207;53.540;10.042;2023-11-21T06:29:45;6.80;90.70
4386;DHT22;2207;53.540;10.042;2023-11-21T06:32:15;6.80;90.60
4386;DHT22;2207;53.540;10.042;2023-11-21T06:34:42;6.80;90.70
4386;DHT22;2207;53.540;10.042;2023-11-21T06:37:09;6.80;90.60
4386;DHT22;2207;53.540;10.042;2023-11-21T06:39:36;6.80;90.60
4386;DHT22;2207;53.540;10.042;2023-11-21T06:42:05;6.80;90.40
4386;DHT22;2207;53.540;10.042;2023-11-21T06:44:31;6.80;90.40
4386;DHT22;2207;53.540;10.042;2023-11-21T06:46:59;6.80;90.40
4386;DHT22;2207;53.540;10.042;2023-11-21T06:49:25;6.80;90.40
4386;DHT22;2207;53.540;10.042;2023-11-21T06:51:52;6.80;90.40
4386;DHT22;2207;53.540;10.042;2023-11-21T06:54:20;6.80;90.40
4386;DHT22;2207;53.540;10.042;2023-11-21T06:56:47;6.80;90.30
4386;DHT22;2207;53.540;10.042;2023-11-21T06:59:15;6.80;90.20
4386;DHT22;2207;53.540;10.042;2023-11-21T07:01:41;6.80;90.10
4386;DHT22;2207;53.540;10.042;2023-11-21T07:04:08;6.90;90.20
4386;DHT22;2207;53.540;10.042;2023-11-21T07:06:35;6.90;90.10
4386;DHT22;2207;53.540;10.042;2023-11-21T07:09:03;6.90;90.10
4386;DHT22;2207;53.540;10.042;2023-11-21T07:11:30;6.90;90.10
4386;DHT22;2207;53.540;10.042;2023-11-21T07:13:58;6.90;90.20
4386;DHT22;2207;53.540;10.042;2023-11-21T07:16:26;6.90;90.20
4386;DHT22;2207;53.540;10.042;2023-11-21T07:18:52;6.90;90.20
4386;DHT22;2207;53.540;10.042;2023-11-21T07:21:20;6.90;90.10
4386;DHT22;2207;53.540;10.042;2023-11-21T07:23:46;6.90;90.00
4386;DHT22;2207;53.540;10.042;2023-11-21T07:26:13;6.90;90.00
4386;DHT22;2207;53.540;10.042;2023-11-21T07:28:40;7.00;90.00
4386;DHT22;2207;53.540;10.042;2023-11-21T07:31:06;7.00;89.90
4386;DHT22;2207;53.540;10.042;2023-11-21T07:33:34;7.00;89.70
4386;DHT22;2207;53.540;10.042;2023-11-21T07:36:01;7.00;89.50
4386;DHT22;2207;53.540;10.042;2023-11-21T07:38:27;7.10;89.30
4386;DHT22;2207;53.540;10.042;2023-11-21T07:40:54;7.10;89.10
4386;DHT22;2207;53.540;10.042;2023-11-21T07:43:21;7.10;89.10
4386;DHT22;2207;53.540;10.042;2023-11-21T07:45:47;7.10;88.90
4386;DHT22;2207;53.540;10.042;2023-11-21T07:48:14;7.10;88.70
4386;DHT22;2207;53.540;10.042;2023-11-21T07:50:42;7.10;88.50
4386;DHT22;2207;53.540;10.042;2023-11-21T07:53:09;7.10;88.30
4386;DHT22;2207;53.540;10.042;2023-11-21T07:55:35;7.10;87.90
4386;DHT22;2207;53.540;10.042;2023-11-21T07:58:02;7.10;87.80
4386;DHT22;2207;53.540;10.042;2023-11-21T08:00:29;7.20;87.80
4386;DHT22;2207;53.540;10.042;2023-11-21T08:02:56;7.20;87.70
4386;DHT22;2207;53.540;10.042;2023-11-21T08:05:23;7.20;87.50
4386;DHT22;2207;53.540;10.042;2023-11-21T08:07:51;7.20;87.20
4386;DHT22;2207;53.540;10.042;2023-11-21T08:10:18;7.20;87.00
4386;DHT22;2207;53.540;10.042;2023-11-21T08:12:46;7.30;86.80
4386;DHT22;2207;53.540;10.042;2023-11-21T08:15:13;7.20;86.30
4386;DHT22;2207;53.540;10.042;2023-11-21T08:17:40;7.30;85.90
4386;DHT22;2207;53.540;10.042;2023-11-21T08:20:14;7.30;85.60
4386;DHT22;2207;53.540;10.042;2023-11-21T08:22:41;7.30;85.10
4386;DHT22;2207;53.540;10.042;2023-11-21T08:25:10;7.30;84.90
4386;DHT22;2207;53.540;10.042;2023-11-21T08:27:38;7.40;84.80
4386;DHT22;2207;53.540;10.042;2023-11-21T08:30:05;7.40;84.60
4386;DHT22;2207;53.540;10.042;2023-11-21T08:32:32;7.50;84.40
4386;DHT22;2207;53.540;10.042;2023-11-21T08:34:59;7.60;84.20
4386;DHT22;2207;53.540;10.042;2023-11-21T08:37:26;7.60;83.90
4386;DHT22;2207;53.540;10.042;2023-11-21T08:39:57;7.70;83.60
4386;DHT22;2207;53.540;10.042;2023-11-21T08:42:26;7.70;83.20
4386;DHT22;2207;53.540;10.042;2023-11-21T08:44:54;7.70;82.60
4386;DHT22;2207;53.540;10.042;2023-11-21T08:47:23;7.60;82.20
4386;DHT22;2207;53.540;10.042;2023-11-21T08:49:51;7.60;82.00
4386;DHT22;2207;53.540;10.042;2023-11-21T08:52:18;7.50;81.80
4386;DHT22;2207;53.540;10.042;2023-11-21T08:54:46;7.50;82.00
4386;DHT22;2207;53.540;10.042;2023-11-21T08:57:13;7.40;82.10
4386;DHT22;2207;53.540;10.042;2023-11-21T08:59:42;7.50;82.50
4386;DHT22;2207;53.540;10.042;2023-11-21T09:02:09;7.40;82.00
4386;DHT22;2207;53.540;10.042;2023-11-21T09:04:36;7.40;81.90
4386;DHT22;2207;53.540;10.042;2023-11-21T09:07:03;7.40;82.20
4386;DHT22;2207;53.540;10.042;2023-11-21T09:09:30;7.40;82.50
4386;DHT22;2207;53.540;10.042;2023-11-21T09:11:57;7.40;82.50
4386;DHT22;2207;53.540;10.042;2023-11-21T09:14:27;7.40;82.30
4386;DHT22;2207;53.540;10.042;2023-11-21T09:16:55;7.40;82.30
4386;DHT22;2207;53.540;10.042;2023-11-21T09:19:22;7.50;82.70
4386;DHT22;2207;53.540;10.042;2023-11-21T09:21:49;7.50;82.90
4386;DHT22;2207;53.540;10.042;2023-11-21T09:24:16;7.50;82.80
4386;DHT22;2207;53.540;10.042;2023-11-21T09:26:43;7.50;83.00
4386;DHT22;2207;53.540;10.042;2023-11-21T09:29:10;7.60;83.10
4386;DHT22;2207;53.540;10.042;2023-11-21T09:31:37;7.50;83.00
4386;DHT22;2207;53.540;10.042;2023-11-21T09:34:09;7.50;83.00
4386;DHT22;2207;53.540;10.042;2023-11-21T09:36:44;7.60;83.40
4386;DHT22;2207;53.540;10.042;2023-11-21T09:39:10;7.60;83.80
4386;DHT22;2207;53.540;10.042;2023-11-21T09:41:40;7.60;83.70
4386;DHT22;2207;53.540;10.042;2023-11-21T09:44:13;7.60;83.60
4386;DHT22;2207;53.540;10.042;2023-11-21T09:46:44;7.70;83.80
4386;DHT22;2207;53.540;10.042;2023-11-21T09:49:13;7.70;83.50
4386;DHT22;2207;53.540;10.042;2023-11-21T09:51:42;7.70;83.20
4386;DHT22;2207;53.540;10.042;2023-11-21T09:54:10;7.70;83.20
4386;DHT22;2207;53.540;10.042;2023-11-21T09:56:36;7.80;83.30
4386;DHT22;2207;53.540;10.042;2023-11-21T09:59:03;7.80;83.30
4386;DHT22;2207;53.540;10.042;2023-11-21T10:01:34;7.80;83.30
4386;DHT22;2207;53.540;10.042;2023-11-21T10:04:02;7.80;83.30
4386;DHT22;2207;53.540;10.042;2023-11-21T10:06:32;7.90;83.40
4386;DHT22;2207;53.540;10.042;2023-11-21T10:08:59;7.90;83.40
4386;DHT22;2207;53.540;10.042;2023-11-21T10:11:25;8.00;83.50
4386;DHT22;2207;53.540;10.042;2023-11-21T10:14:08;8.00;83.20
4386;DHT22;2207;53.540;10.042;2023-11-21T10:16:38;7.90;82.90
4386;DHT22;2207;53.540;10.042;2023-11-21T10:19:05;7.90;83.10
4386;DHT22;2207;53.540;10.042;2023-11-21T10:21:33;8.00;83.00
4386;DHT22;2207;53.540;10.042;2023-11-21T10:24:00;8.00;83.40
4386;DHT22;2207;53.540;10.042;2023-11-21T10:26:26;8.10;83.60
4386;DHT22;2207;53.540;10.042;2023-11-21T10:28:57;8.20;82.70
4386;DHT22;2207;53.540;10.042;2023-11-21T10:31:23;8.20;82.00
4386;DHT22;2207;53.540;10.042;2023-11-21T10:33:50;8.30;81.60
4386;DHT22;2207;53.540;10.042;2023-11-21T10:36:24;8.30;81.60
4386;DHT22;2207;53.540;10.042;2023-11-21T10:38:53;8.30;81.00
4386;DHT22;2207;53.540;10.042;2023-11-21T10:41:20;8.30;80.70
4386;DHT22;2207;53.540;10.042;2023-11-21T10:43:48;8.30;80.40
4386;DHT22;2207;53.540;10.042;2023-11-21T10:46:16;8.20;80.10
4386;DHT22;2207;53.540;10.042;2023-11-21T10:48:43;8.20;80.50
4386;DHT22;2207;53.540;10.042;2023-11-21T10:51:10;8.20;80.80
4386;DHT22;2207;53.540;10.042;2023-11-21T10:53:39;8.20;80.60
4386;DHT22;2207;53.540;10.042;2023-11-21T10:56:09;8.20;80.50
4386;DHT22;2207;53.540;10.042;2023-11-21T10:58:37;8.30;80.30
4386;DHT22;2207;53.540;10.042;2023-11-21T11:01:06;8.30;80.00
4386;DHT22;2207;53.540;10.042;2023-11-21T11:03:32;8.40;79.60
4386;DHT22;2207;53.540;10.042;2023-11-21T11:06:04;8.40;78.90
4386;DHT22;2207;53.540;10.042;2023-11-21T11:08:36;8.30;78.50
4386;DHT22;2207;53.540;10.042;2023-11-21T11:11:04;8.20;78.70
4386;DHT22;2207;53.540;10.042;2023-11-21T11:13:32;8.10;79.20
4386;DHT22;2207;53.540;10.042;2023-11-21T11:15:59;8.00;79.70
4386;DHT22;2207;53.540;10.042;2023-11-21T11:18:27;8.10;80.30
4386;DHT22;2207;53.540;10.042;2023-11-21T11:20:54;8.10;80.30
4386;DHT22;2207;53.540;10.042;2023-11-21T11:23:39;8.10;80.00
4386;DHT22;2207;53.540;10.042;2023-11-21T11:26:10;8.00;79.70
4386;DHT22;2207;53.540;10.042;2023-11-21T11:28:44;8.10;79.50
4386;DHT22;2207;53.540;10.042;2023-11-21T11:31:14;8.00;79.00
4386;DHT22;2207;53.540;10.042;2023-11-21T11:33:48;8.10;79.30
4386;DHT22;2207;53.540;10.042;2023-11-21T11:36:18;8.10;79.30
4386;DHT22;2207;53.540;10.042;2023-11-21T11:38:48;8.20;78.60
4386;DHT22;2207;53.540;10.042;2023-11-21T11:41:23;8.20;77.70
4386;DHT22;2207;53.540;10.042;2023-11-21T11:43:51;8.30;77.20
4386;DHT22;2207;53.540;10.042;2023-11-21T11:46:18;8.30;76.30
4386;DHT22;2207;53.540;10.042;2023-11-21T11:48:47;8.30;75.80
4386;DHT22;2207;53.540;10.042;2023-11-21T11:51:15;8.30;75.40
4386;DHT22;2207;53.540;10.042;2023-11-21T11:53:44;8.20;75.60
4386;DHT22;2207;53.540;10.042;2023-11-21T11:56:25;8.20;75.90
4386;DHT22;2207;53.540;10.042;2023-11-21T11:58:53;8.20;75.70
4386;DHT22;2207;53.540;10.042;2023-11-21T12:01:20;8.10;75.50
4386;DHT22;2207;53.540;10.042;2023-11-21T12:06:32;8.10;76.10
4386;DHT22;2207;53.540;10.042;2023-11-21T12:09:00;8.10;75.90
4386;DHT22;2207;53.540;10.042;2023-11-21T12:11:30;8.10;75.60
4386;DHT22;2207;53.540;10.042;2023-11-21T12:13:58;8.00;75.40
4386;DHT22;2207;53.540;10.042;2023-11-21T12:16:32;8.00;75.20
4386;DHT22;2207;53.540;10.042;2023-11-21T12:18:59;8.00;75.40
4386;DHT22;2207;53.540;10.042;2023-11-21T12:21:25;7.90;75.40
4386;DHT22;2207;53.540;10.042;2023-11-21T12:23:52;7.90;75.30
4386;DHT22;2207;53.540;10.042;2023-11-21T12:26:19;7.90;75.20
4386;DHT22;2207;53.540;10.042;2023-11-21T12:28:51;7.80;74.70
4386;DHT22;2207;53.540;10.042;2023-11-21T12:31:23;7.70;74.60
4386;DHT22;2207;53.540;10.042;2023-11-21T12:33:50;7.70;75.20
4386;DHT22;2207;53.540;10.042;2023-11-21T12:36:17;7.70;75.60
4386;DHT22;2207;53.540;10.042;2023-11-21T12:38:44;7.70;75.70
4386;DHT22;2207;53.540;10.042;2023-11-21T12:41:11;7.60;75.90
4386;DHT22;2207;53.540;10.042;2023-11-21T12:43:37;7.50;76.10
4386;DHT22;2207;53.540;10.042;2023-11-21T12:46:05;7.50;76.40
4386;DHT22;2207;53.540;10.042;2023-11-21T12:48:33;7.40;76.80
4386;DHT22;2207;53.540;10.042;2023-11-21T12:51:00;7.40;77.20
4386;DHT22;2207;53.540;10.042;2023-11-21T12:53:28;7.40;77.50
4386;DHT22;2207;53.540;10.042;2023-11-21T12:56:02;7.40;77.70
4386;DHT22;2207;53.540;10.042;2023-11-21T12:58:29;7.40;77.90
4386;DHT22;2207;53.540;10.042;2023-11-21T13:00:56;7.40;77.60
4386;DHT22;2207;53.540;10.042;2023-11-21T13:03:24;7.40;77.40
4386;DHT22;2207;53.540;10.042;2023-11-21T13:05:53;7.40;77.70
4386;DHT22;2207;53.540;10.042;2023-11-21T13:08:22;7.30;78.00
4386;DHT22;2207;53.540;10.042;2023-11-21T13:10:50;7.30;78.60
4386;DHT22;2207;53.540;10.042;2023-11-21T13:13:17;7.20;79.00
4386;DHT22;2207;53.540;10.042;2023-11-21T13:15:47;7.20;79.30
4386;DHT22;2207;53.540;10.042;2023-11-21T13:18:14;7.20;79.70
4386;DHT22;2207;53.540;10.042;2023-11-21T13:20:41;7.20;80.00
4386;DHT22;2207;53.540;10.042;2023-11-21T13:23:12;7.20;80.40
4386;DHT22;2207;53.540;10.042;2023-11-21T13:25:41;7.20;80.60
4386;DHT22;2207;53.540;10.042;2023-11-21T13:28:08;7.10;80.70
4386;DHT22;2207;53.540;10.042;2023-11-21T13:30:35;7.10;80.90
4386;DHT22;2207;53.540;10.042;2023-11-21T13:33:02;7.00;81.20
4386;DHT22;2207;53.540;10.042;2023-11-21T13:35:31;7.00;81.60
4386;DHT22;2207;53.540;10.042;2023-11-21T13:38:03;7.00;82.00
4386;DHT22;2207;53.540;10.042;2023-11-21T13:40:33;7.10;82.50
4386;DHT22;2207;53.540;10.042;2023-11-21T13:43:08;7.10;82.60
4386;DHT22;2207;53.540;10.042;2023-11-21T13:45:35;7.10;82.60
4386;DHT22;2207;53.540;10.042;2023-11-21T13:48:02;7.00;82.50
4386;DHT22;2207;53.540;10.042;2023-11-21T13:50:30;7.00;82.60
4386;DHT22;2207;53.540;10.042;2023-11-21T13:52:59;7.00;82.50
4386;DHT22;2207;53.540;10.042;2023-11-21T13:55:29;6.90;82.40
4386;DHT22;2207;53.540;10.042;2023-11-21T13:57:57;6.90;82.40
4386;DHT22;2207;53.540;10.042;2023-11-21T14:00:24;6.90;82.40
4386;DHT22;2207;53.540;10.042;2023-11-21T14:03:07;6.90;82.50
4386;DHT22;2207;53.540;10.042;2023-11-21T14:05:42;6.80;82.30
4386;DHT22;2207;53.540;10.042;2023-11-21T14:08:09;6.80;82.30
4386;DHT22;2207;53.540;10.042;2023-11-21T14:10:38;6.80;82.30
4386;DHT22;2207;53.540;10.042;2023-11-21T14:13:09;6.80;82.40
4386;DHT22;2207;53.540;10.042;2023-11-21T14:15:38;6.80;82.40
4386;DHT22;2207;53.540;10.042;2023-11-21T14:18:07;6.80;82.30
4386;DHT22;2207;53.540;10.042;2023-11-21T14:20:36;6.70;82.30
4386;DHT22;2207;53.540;10.042;2023-11-21T14:23:03;6.70;82.20
4386;DHT22;2207;53.540;10.042;2023-11-21T14:25:31;6.60;82.10
4386;DHT22;2207;53.540;10.042;2023-11-21T14:27:58;6.60;82.10
4386;DHT22;2207;53.540;10.042;2023-11-21T14:30:26;6.60;82.10
4386;DHT22;2207;53.540;10.042;2023-11-21T14:32:55;6.60;82.60
4386;DHT22;2207;53.540;10.042;2023-11-21T14:35:21;6.60;82.60
4386;DHT22;2207;53.540;10.042;2023-11-21T14:37:48;6.50;82.50
4386;DHT22;2207;53.540;10.042;2023-11-21T14:40:15;6.50;82.50
4386;DHT22;2207;53.540;10.042;2023-11-21T14:42:43;6.50;82.50
4386;DHT22;2207;53.540;10.042;2023-11-21T14:45:12;6.40;82.00
4386;DHT22;2207;53.540;10.042;2023-11-21T14:47:43;6.40;81.90
4386;DHT22;2207;53.540;10.042;2023-11-21T14:50:17;6.40;82.20
4386;DHT22;2207;53.540;10.042;2023-11-21T14:53:16;6.40;82.00
4386;DHT22;2207;53.540;10.042;2023-11-21T14:56:03;6.30;82.10
4386;DHT22;2207;53.540;10.042;2023-11-21T14:58:29;6.30;81.80
4386;DHT22;2207;53.540;10.042;2023-11-21T15:00:56;6.30;81.00
4386;DHT22;2207;53.540;10.042;2023-11-21T15:03:23;6.30;80.70
4386;DHT22;2207;53.540;10.042;2023-11-21T15:06:08;6.30;80.40
4386;DHT22;2207;53.540;10.042;2023-11-21T15:08:56;6.30;80.20
4386;DHT22;2207;53.540;10.042;2023-11-21T15:11:44;6.30;80.50
4386;DHT22;2207;53.540;10.042;2023-11-21T15:14:12;6.30;80.70
4386;DHT22;2207;53.540;10.042;2023-11-21T15:16:46;6.30;80.60
4386;DHT22;2207;53.540;10.042;2023-11-21T15:19:16;6.20;80.50
4386;DHT22;2207;53.540;10.042;2023-11-21T15:21:50;6.10;80.70
4386;DHT22;2207;53.540;10.042;2023-11-21T15:24:18;6.10;81.30
4386;DHT22;2207;53.540;10.042;2023-11-21T15:26:44;6.00;81.60
4386;DHT22;2207;53.540;10.042;2023-11-21T15:29:11;5.90;82.50
4386;DHT22;2207;53.540;10.042;2023-11-21T15:31:38;5.80;83.10
4386;DHT22;2207;53.540;10.042;2023-11-21T15:34:09;5.70;83.50
4386;DHT22;2207;53.540;10.042;2023-11-21T15:36:36;5.60;84.00
4386;DHT22;2207;53.540;10.042;2023-11-21T15:39:02;5.60;84.70
4386;DHT22;2207;53.540;10.042;2023-11-21T15:41:30;5.50;85.10
4386;DHT22;2207;53.540;10.042;2023-11-21T15:43:57;5.50;85.40
4386;DHT22;2207;53.540;10.042;2023-11-21T15:46:23;5.50;85.70
4386;DHT22;2207;53.540;10.042;2023-11-21T15:48:50;5.50;85.80
4386;DHT22;2207;53.540;10.042;2023-11-21T15:51:19;5.50;85.80
4386;DHT22;2207;53.540;10.042;2023-11-21T15:53:46;5.50;85.80
4386;DHT22;2207;53.540;10.042;2023-11-21T15:56:12;5.50;85.90
4386;DHT22;2207;53.540;10.042;2023-11-21T15:58:41;5.50;86.00
4386;DHT22;2207;53.540;10.042;2023-11-21T16:01:08;5.60;86.00
4386;DHT22;2207;53.540;10.042;2023-11-21T16:03:38;5.60;86.00
4386;DHT22;2207;53.540;10.042;2023-11-21T16:06:05;5.60;85.80
4386;DHT22;2207;53.540;10.042;2023-11-21T16:08:35;5.60;85.60
4386;DHT22;2207;53.540;10.042;2023-11-21T16:11:02;5.60;85.50